TimeCDT,TemperatureF,Dew PointF,Humidity,Sea Level PressureIn,VisibilityMPH,Wind Direction,Wind SpeedMPH,Gust SpeedMPH,PrecipitationIn,Events,Conditions,WindDirDegrees,DateUTC
12:15 AM,69.8,62.1,76,29.98,10.0,North,3.5,-,N/A,,Overcast,360,2013-08-03 05:15:00
12:35 AM,68.9,62.6,80,29.98,10.0,North,3.5,-,N/A,,Overcast,360,2013-08-03 05:35:00
12:55 AM,69.1,62.6,80,29.98,10.0,NNW,4.6,-,N/A,,Overcast,340,2013-08-03 05:55:00
1:15 AM,68.9,62.6,80,29.98,10.0,North,3.5,-,N/A,,Overcast,350,2013-08-03 06:15:00
1:35 AM,68.7,63.7,84,29.98,10.0,Calm,Calm,-,N/A,,Overcast,0,2013-08-03 06:35:00
1:55 AM,68.5,62.8,82,29.98,10.0,NNW,3.5,-,N/A,,Overcast,330,2013-08-03 06:55:00
2:15 AM,67.5,63.3,87,29.99,10.0,NW,4.6,-,N/A,,Overcast,310,2013-08-03 07:15:00
2:35 AM,68.0,62.4,82,29.99,10.0,Calm,Calm,-,N/A,,Overcast,0,2013-08-03 07:35:00
2:55 AM,66.7,62.6,86,30.00,10.0,NW,5.8,-,N/A,,Overcast,320,2013-08-03 07:55:00
3:15 AM,66.4,61.9,85,30.00,10.0,NNW,5.8,-,N/A,,Overcast,340,2013-08-03 08:15:00
3:35 AM,66.4,61.7,85,30.00,10.0,NNW,4.6,-,N/A,,Overcast,330,2013-08-03 08:35:00
3:55 AM,65.8,61.5,86,29.98,10.0,North,4.6,-,N/A,,Mostly Cloudy,350,2013-08-03 08:55:00
4:15 AM,65.3,60.8,85,29.99,10.0,NNW,4.6,-,N/A,,Scattered Clouds,330,2013-08-03 09:15:00
4:35 AM,64.4,60.4,87,29.98,10.0,North,8.1,-,N/A,,Clear,350,2013-08-03 09:35:00
4:55 AM,64.2,59.5,85,29.99,10.0,North,8.1,-,N/A,,Clear,360,2013-08-03 09:55:00
5:15 AM,63.5,59.0,85,29.99,10.0,North,9.2,-,N/A,,Clear,10,2013-08-03 10:15:00
5:35 AM,63.0,58.3,85,30.00,10.0,North,6.9,-,N/A,,Clear,10,2013-08-03 10:35:00
5:55 AM,62.6,58.3,86,30.00,10.0,NNE,6.9,-,N/A,,Clear,20,2013-08-03 10:55:00
6:15 AM,61.7,57.6,86,30.01,10.0,NNE,6.9,-,N/A,,Clear,20,2013-08-03 11:15:00
6:35 AM,62.2,57.4,84,30.02,10.0,North,6.9,-,N/A,,Clear,10,2013-08-03 11:35:00
6:55 AM,62.6,57.2,82,30.01,10.0,NNE,9.2,-,N/A,,Clear,20,2013-08-03 11:55:00
7:15 AM,63.7,57.6,80,30.02,10.0,North,8.1,-,N/A,,Clear,10,2013-08-03 12:15:00
7:35 AM,64.8,57.7,78,30.03,10.0,NNE,9.2,-,N/A,,Clear,20,2013-08-03 12:35:00
7:55 AM,66.0,58.6,77,30.04,10.0,NNE,4.6,-,N/A,,Clear,30,2013-08-03 12:55:00
8:15 AM,67.5,58.6,73,30.05,10.0,ENE,3.5,-,N/A,,Clear,60,2013-08-03 13:15:00
8:35 AM,68.4,58.8,71,30.05,10.0,NE,6.9,-,N/A,,Clear,50,2013-08-03 13:35:00
8:55 AM,68.9,58.8,70,30.05,10.0,NE,5.8,-,N/A,,Clear,50,2013-08-03 13:55:00
9:15 AM,70.2,59.5,69,30.05,10.0,NNE,6.9,-,N/A,,Clear,30,2013-08-03 14:15:00
9:35 AM,71.6,59.9,66,30.05,10.0,NNE,5.8,-,N/A,,Clear,30,2013-08-03 14:35:00
9:55 AM,72.5,60.4,66,30.06,10.0,NE,5.8,-,N/A,,Clear,40,2013-08-03 14:55:00
10:15 AM,73.4,60.1,63,30.07,10.0,North,4.6,-,N/A,,Clear,10,2013-08-03 15:15:00
10:35 AM,74.1,59.2,59,30.07,10.0,NNE,4.6,-,N/A,,Clear,30,2013-08-03 15:35:00
10:55 AM,75.2,60.6,60,30.08,10.0,North,8.1,-,N/A,,Clear,10,2013-08-03 15:55:00
11:15 AM,75.6,59.5,57,30.08,10.0,North,9.2,-,N/A,,Clear,360,2013-08-03 16:15:00
11:35 AM,76.1,57.9,53,30.07,10.0,NNE,9.2,-,N/A,,Clear,20,2013-08-03 16:35:00
11:55 AM,77.0,57.2,50,30.08,10.0,NNE,10.4,-,N/A,,Clear,20,2013-08-03 16:55:00
12:15 PM,77.5,55.4,46,30.08,10.0,North,5.8,-,N/A,,Clear,360,2013-08-03 17:15:00
12:35 PM,77.4,55.4,47,30.08,10.0,North,6.9,-,N/A,,Clear,360,2013-08-03 17:35:00
12:55 PM,77.9,54.5,44,30.08,10.0,NNW,5.8,-,N/A,,Clear,340,2013-08-03 17:55:00
1:15 PM,77.5,54.0,44,30.09,10.0,NE,5.8,-,N/A,,Clear,50,2013-08-03 18:15:00
1:35 PM,77.9,53.6,43,30.09,10.0,North,8.1,-,N/A,,Mostly Cloudy,350,2013-08-03 18:35:00
1:55 PM,77.7,53.6,43,30.09,10.0,North,6.9,-,N/A,,Scattered Clouds,360,2013-08-03 18:55:00
2:15 PM,78.3,52.0,40,30.09,10.0,North,3.5,-,N/A,,Scattered Clouds,10,2013-08-03 19:15:00
2:35 PM,78.3,52.5,41,30.08,10.0,NNW,6.9,-,N/A,,Scattered Clouds,340,2013-08-03 19:35:00
2:55 PM,78.4,54.1,43,30.08,10.0,NNE,10.4,-,N/A,,Scattered Clouds,20,2013-08-03 19:55:00
3:15 PM,79.0,53.4,41,30.08,10.0,North,9.2,-,N/A,,Scattered Clouds,350,2013-08-03 20:15:00
3:35 PM,78.8,53.1,41,30.08,10.0,North,5.8,-,N/A,,Scattered Clouds,350,2013-08-03 20:35:00
3:55 PM,78.6,53.2,41,30.08,10.0,North,8.1,-,N/A,,Scattered Clouds,10,2013-08-03 20:55:00
4:15 PM,78.4,50.9,38,30.08,10.0,NNE,11.5,-,N/A,,Clear,20,2013-08-03 21:15:00
4:35 PM,79.3,52.3,39,30.08,10.0,North,6.9,-,N/A,,Clear,360,2013-08-03 21:35:00
4:55 PM,78.6,51.3,38,30.08,10.0,North,9.2,-,N/A,,Clear,10,2013-08-03 21:55:00
5:15 PM,78.6,50.7,38,30.08,10.0,North,6.9,-,N/A,,Clear,10,2013-08-03 22:15:00
5:35 PM,78.1,51.4,39,30.08,10.0,NNE,8.1,-,N/A,,Clear,30,2013-08-03 22:35:00
5:55 PM,77.9,51.1,39,30.08,10.0,North,8.1,-,N/A,,Clear,360,2013-08-03 22:55:00
6:15 PM,77.0,51.3,40,30.08,10.0,North,8.1,-,N/A,,Clear,10,2013-08-03 23:15:00
6:35 PM,77.0,51.4,41,30.09,10.0,North,6.9,-,N/A,,Clear,360,2013-08-03 23:35:00
6:55 PM,76.5,53.2,44,30.09,10.0,NNE,3.5,-,N/A,,Clear,20,2013-08-03 23:55:00
7:15 PM,75.4,53.2,46,30.09,10.0,North,3.5,-,N/A,,Clear,10,2013-08-04 00:15:00
7:35 PM,75.2,54.7,49,30.09,10.0,North,4.6,-,N/A,,Clear,10,2013-08-04 00:35:00
7:55 PM,72.9,56.5,56,30.08,10.0,NNE,3.5,-,N/A,,Clear,30,2013-08-04 00:55:00
8:15 PM,72.7,55.8,55,30.08,10.0,Calm,Calm,-,N/A,,Clear,0,2013-08-04 01:15:00
8:35 PM,72.7,54.7,53,30.08,10.0,North,3.5,-,N/A,,Clear,360,2013-08-04 01:35:00
8:55 PM,68.5,58.3,70,30.10,10.0,NW,3.5,-,N/A,,Clear,320,2013-08-04 01:55:00
9:15 PM,66.6,58.8,76,30.11,10.0,NW,3.5,-,N/A,,Clear,320,2013-08-04 02:15:00
9:35 PM,67.6,59.0,74,30.12,10.0,NNW,3.5,-,N/A,,Clear,340,2013-08-04 02:35:00
9:55 PM,68.9,57.7,68,30.11,10.0,NNW,3.5,-,N/A,,Clear,330,2013-08-04 02:55:00
10:15 PM,68.2,58.3,71,30.12,10.0,Calm,Calm,-,N/A,,Scattered Clouds,0,2013-08-04 03:15:00
10:35 PM,67.1,58.3,73,30.12,10.0,North,5.8,-,N/A,,Mostly Cloudy,350,2013-08-04 03:35:00
10:55 PM,65.8,56.8,73,30.12,10.0,North,6.9,-,N/A,,Scattered Clouds,360,2013-08-04 03:55:00
11:15 PM,66.4,56.1,69,30.12,10.0,North,5.8,-,N/A,,Clear,360,2013-08-04 04:15:00
11:35 PM,66.0,56.3,71,30.13,10.0,North,6.9,-,N/A,,Clear,360,2013-08-04 04:35:00
11:55 PM,65.3,56.7,74,30.14,10.0,North,5.8,-,N/A,,Mostly Cloudy,360,2013-08-04 04:55:00